Time;durP1;ratioP1;P1;durP2;ratioP2;P2;SDS_P1;SDS_P2;PMS_P1;PMS_P2;Temp;Humidity;BMP_temperature;BMP_pressure;BME280_temperature;BME280_humidity;BME280_pressure;Samples;Min_cycle;Max_cycle;Signal;HPM_P1;HPM_P2
2022/01/10 00:01:29;;;;;;;6.45;1.80;;;19.80;55.30;;;;;;4479796;32;20155;-66
2022/01/10 00:03:55;;;;;;;7.28;1.63;;;19.80;55.40;;;;;;4479493;32;20143;-66
2022/01/10 00:06:21;;;;;;;8.75;2.05;;;19.80;55.40;;;;;;4479900;32;20125;-66
2022/01/10 00:08:47;;;;;;;6.65;1.73;;;19.70;55.40;;;;;;4491493;31;20443;-66
2022/01/10 00:11:13;;;;;;;7.15;2.03;;;19.70;55.40;;;;;;4479636;32;20136;-66
2022/01/10 00:13:39;;;;;;;5.88;1.80;;;19.70;55.40;;;;;;4479964;32;20142;-66
2022/01/10 00:16:04;;;;;;;4.85;2.00;;;19.70;55.50;;;;;;4477934;32;20144;-66
2022/01/10 00:18:30;;;;;;;8.40;2.08;;;19.70;55.60;;;;;;4478570;32;20135;-66
2022/01/10 00:20:56;;;;;;;6.53;1.60;;;19.60;55.50;;;;;;4479119;32;20744;-66
2022/01/10 00:23:22;;;;;;;6.35;1.80;;;19.60;55.50;;;;;;4478554;32;20147;-67
2022/01/10 00:25:48;;;;;;;5.50;1.92;;;19.60;55.50;;;;;;4491134;31;20136;-66
2022/01/10 00:28:15;;;;;;;6.95;1.92;;;19.60;55.50;;;;;;4478349;32;20292;-66
2022/01/10 00:30:41;;;;;;;6.63;1.60;;;19.60;55.60;;;;;;4479560;32;20125;-66
2022/01/10 00:33:07;;;;;;;6.13;1.95;;;19.60;55.60;;;;;;4478790;32;20235;-66
2022/01/10 00:35:32;;;;;;;4.55;1.70;;;19.50;55.60;;;;;;4479518;32;20127;-66
2022/01/10 00:37:58;;;;;;;7.93;2.05;;;19.50;55.50;;;;;;4478161;31;20113;-66
2022/01/10 00:40:24;;;;;;;5.63;1.55;;;19.50;55.50;;;;;;4479720;32;20132;-66
2022/01/10 00:42:55;;;;;;;7.43;1.85;;;19.50;55.50;;;;;;4479412;32;20117;-66
2022/01/10 00:45:26;;;;;;;5.72;1.80;;;19.50;55.60;;;;;;4479857;32;20140;-66
2022/01/10 00:47:57;;;;;;;6.55;1.50;;;19.50;55.70;;;;;;4491396;31;20282;-66
2022/01/10 00:50:24;;;;;;;4.78;1.50;;;19.50;55.60;;;;;;4478548;32;20653;-66
2022/01/10 00:52:51;;;;;;;5.78;1.60;;;19.50;55.60;;;;;;4479389;32;20137;-66
2022/01/10 00:55:17;;;;;;;5.47;1.65;;;19.40;55.60;;;;;;4478929;32;20144;-66
2022/01/10 00:57:43;;;;;;;7.40;1.90;;;19.40;56.50;;;;;;4478062;32;20149;-66
2022/01/10 01:00:12;;;;;;;6.18;1.70;;;19.40;55.50;;;;;;4478753;32;20193;-66
2022/01/10 01:02:39;;;;;;;4.95;1.42;;;19.40;55.60;;;;;;4479817;32;20214;-66
2022/01/10 01:05:08;;;;;;;5.55;1.52;;;19.40;56.60;;;;;;4475081;32;20282;-66
2022/01/10 01:07:35;;;;;;;5.47;1.60;;;19.30;55.60;;;;;;4466310;32;20255;-66
2022/01/10 01:10:26;;;;;;;4.57;1.50;;;19.30;55.60;;;;;;4480187;32;20152;-66
2022/01/10 01:12:55;;;;;;;4.68;1.50;;;19.30;55.60;;;;;;4480151;32;20148;-66
2022/01/10 01:15:33;;;;;;;4.60;1.38;;;19.30;55.60;;;;;;4480317;32;20188;-66
2022/01/10 01:26:02;;;;;;;4.25;1.38;;;19.20;55.60;;;;;;4479906;32;20144;-66
2022/01/10 01:28:29;;;;;;;5.95;1.63;;;19.20;55.60;;;;;;4480176;32;20233;-66
2022/01/10 01:30:55;;;;;;;2.63;1.10;;;19.20;55.60;;;;;;4480562;32;20125;-66
2022/01/10 01:33:21;;;;;;;6.57;1.55;;;19.20;55.70;;;;;;4479684;32;20117;-66
2022/01/10 01:35:47;;;;;;;4.32;1.58;;;19.20;55.70;;;;;;4492310;32;20275;-66
2022/01/10 01:38:14;;;;;;;5.40;1.33;;;19.20;55.70;;;;;;4491626;32;20145;-66
2022/01/10 01:40:46;;;;;;;6.55;1.42;;;19.20;55.70;;;;;;4492371;32;20141;-66
2022/01/10 01:43:12;;;;;;;3.75;1.52;;;19.20;55.60;;;;;;4480072;32;20151;-66
2022/01/10 01:45:45;;;;;;;4.78;1.52;;;19.10;55.70;;;;;;4479968;32;20129;-66
2022/01/10 01:48:12;;;;;;;4.47;1.50;;;19.10;55.70;;;;;;4494406;32;20151;-66
2022/01/10 01:50:39;;;;;;;4.35;1.30;;;19.10;55.70;;;;;;4495635;31;20246;-66
2022/01/10 01:53:08;;;;;;;4.68;1.50;;;19.10;55.70;;;;;;4498414;31;20152;-66
2022/01/10 01:55:35;;;;;;;3.80;1.35;;;19.10;55.70;;;;;;4484356;31;20132;-66
2022/01/10 01:58:01;;;;;;;5.10;1.30;;;19.10;55.70;;;;;;4484442;31;20286;-66
2022/01/10 02:00:27;;;;;;;5.65;1.63;;;19.10;55.80;;;;;;4498891;31;20163;-66
2022/01/10 02:02:54;;;;;;;5.18;1.65;;;19.10;55.80;;;;;;4498660;31;20143;-66
2022/01/10 02:05:20;;;;;;;3.63;1.40;;;19.00;55.70;;;;;;4498557;31;20121;-67
2022/01/10 02:07:46;;;;;;;3.90;1.20;;;19.00;55.70;;;;;;4498526;31;20128;-66
2022/01/10 02:10:14;;;;;;;4.68;1.70;;;19.00;55.70;;;;;;4484542;31;20140;-66
2022/01/10 02:12:40;;;;;;;4.35;1.45;;;19.00;55.70;;;;;;4498331;31;20136;-66
2022/01/10 02:15:06;;;;;;;4.00;1.35;;;19.00;55.70;;;;;;4497347;31;20182;-66
2022/01/10 02:17:38;;;;;;;4.57;1.42;;;19.00;55.70;;;;;;4498589;31;20137;-66
2022/01/10 02:20:06;;;;;;;3.83;1.25;;;19.00;55.70;;;;;;4498283;31;20561;-66
2022/01/10 02:22:32;;;;;;;4.75;1.23;;;19.00;55.80;;;;;;4498773;31;20469;-66
2022/01/10 02:24:58;;;;;;;4.30;1.20;;;18.90;55.70;;;;;;4498217;31;20140;-66
2022/01/10 02:27:25;;;;;;;3.05;1.10;;;18.90;55.70;;;;;;4498219;31;20592;-66
2022/01/10 02:29:51;;;;;;;4.97;1.40;;;18.90;55.70;;;;;;4497853;31;20124;-66
2022/01/10 02:32:19;;;;;;;3.63;1.00;;;18.90;55.70;;;;;;4498265;31;20242;-66
2022/01/10 02:34:45;;;;;;;4.05;1.42;;;18.90;55.70;;;;;;4498415;31;20124;-66
2022/01/10 02:37:11;;;;;;;3.22;1.20;;;18.90;55.70;;;;;;4483518;31;20206;-66
2022/01/10 02:39:37;;;;;;;3.50;1.30;;;18.90;55.70;;;;;;4498258;31;20128;-66
2022/01/10 02:42:03;;;;;;;3.13;1.20;;;18.90;55.70;;;;;;4498069;31;20124;-66
2022/01/10 02:44:29;;;;;;;3.78;1.10;;;18.90;55.70;;;;;;4497945;31;20266;-66
2022/01/10 02:46:56;;;;;;;3.13;1.15;;;18.80;55.70;;;;;;4497533;31;20149;-66
2022/01/10 02:49:25;;;;;;;3.53;1.35;;;18.80;55.70;;;;;;4498089;31;20147;-66
2022/01/10 02:51:52;;;;;;;4.65;1.35;;;18.80;55.70;;;;;;4484010;31;20136;-66
2022/01/10 02:54:18;;;;;;;2.92;1.20;;;18.80;55.70;;;;;;4497641;31;20213;-66
2022/01/10 02:56:49;;;;;;;4.20;1.23;;;18.80;55.70;;;;;;4483920;31;20116;-66
2022/01/10 02:59:15;;;;;;;3.50;1.23;;;18.80;55.70;;;;;;4497494;31;20138;-66
2022/01/10 03:01:41;;;;;;;3.05;1.20;;;18.80;55.70;;;;;;4498032;31;20140;-66
2022/01/10 03:04:07;;;;;;;3.40;1.20;;;18.80;55.70;;;;;;4497389;31;20261;-66
2022/01/10 03:06:33;;;;;;;3.65;1.08;;;18.80;55.70;;;;;;4497662;31;20124;-66
2022/01/10 03:09:05;;;;;;;3.50;1.10;;;18.80;55.70;;;;;;4497779;31;20259;-66
2022/01/10 03:11:40;;;;;;;4.50;1.20;;;18.70;55.60;;;;;;4497197;31;20643;-66
2022/01/10 03:14:06;;;;;;;3.25;1.25;;;18.70;55.60;;;;;;4498024;31;20141;-66
2022/01/10 03:16:34;;;;;;;3.55;1.38;;;18.70;55.60;;;;;;4497256;31;20483;-66
2022/01/10 03:19:00;;;;;;;3.35;1.20;;;18.70;55.60;;;;;;4497835;31;20186;-66
2022/01/10 03:21:25;;;;;;;3.00;1.05;;;18.70;55.60;;;;;;4496989;31;20117;-66
2022/01/10 03:23:52;;;;;;;4.80;0.90;;;18.70;55.70;;;;;;4497546;31;20125;-66
2022/01/10 03:26:19;;;;;;;2.67;1.08;;;18.70;55.70;;;;;;4497425;31;20186;-65
2022/01/10 03:28:45;;;;;;;2.92;1.33;;;18.70;55.70;;;;;;4497093;31;20148;-65
2022/01/10 03:31:10;;;;;;;3.75;1.00;;;18.60;55.60;;;;;;4496528;31;20124;-66
2022/01/10 03:33:36;;;;;;;4.18;1.10;;;18.60;55.60;;;;;;4496987;31;20563;-66
2022/01/10 03:36:03;;;;;;;3.80;1.40;;;18.70;55.70;;;;;;4496239;31;20151;-66
2022/01/10 03:38:29;;;;;;;1.90;1.00;;;18.60;55.70;;;;;;4496860;31;20128;-66
2022/01/10 03:40:55;;;;;;;3.72;1.08;;;18.60;55.70;;;;;;4497273;31;20190;-66
2022/01/10 03:43:21;;;;;;;2.53;1.00;;;18.60;55.70;;;;;;4497146;31;20263;-66
2022/01/10 03:45:46;;;;;;;2.78;1.10;;;18.60;55.70;;;;;;4482671;31;20121;-66
2022/01/10 03:48:12;;;;;;;3.47;1.25;;;18.60;55.60;;;;;;4497129;31;20139;-66
2022/01/10 03:50:39;;;;;;;1.38;0.98;;;18.60;55.70;;;;;;4496925;31;20136;-66
2022/01/10 03:53:05;;;;;;;1.75;0.77;;;18.60;55.70;;;;;;4482993;31;20132;-66
2022/01/10 03:55:31;;;;;;;1.80;1.13;;;18.60;55.70;;;;;;4482337;31;20132;-66
2022/01/10 03:57:56;;;;;;;3.33;1.20;;;18.50;55.60;;;;;;4497359;31;20125;-66
2022/01/10 04:00:22;;;;;;;4.10;1.50;;;18.50;55.60;;;;;;4496807;31;20526;-66
2022/01/10 04:03:00;;;;;;;2.53;1.05;;;18.50;55.60;;;;;;4496790;31;20124;-66
2022/01/10 04:05:26;;;;;;;3.95;0.98;;;18.50;55.60;;;;;;4496896;31;20190;-66
2022/01/10 04:07:52;;;;;;;2.65;0.98;;;18.50;55.60;;;;;;4496690;31;20140;-67
2022/01/10 04:10:18;;;;;;;3.70;1.40;;;18.50;55.60;;;;;;4496929;31;20129;-66
2022/01/10 04:12:44;;;;;;;2.17;1.05;;;18.50;55.70;;;;;;4496169;31;20124;-66
2022/01/10 04:15:10;;;;;;;2.05;1.10;;;18.50;55.60;;;;;;4496298;31;20131;-66
2022/01/10 04:17:36;;;;;;;1.80;0.80;;;18.40;55.60;;;;;;4496440;31;20120;-66
2022/01/10 04:20:04;;;;;;;4.45;1.33;;;18.40;55.60;;;;;;4496570;31;20141;-66
2022/01/10 04:22:30;;;;;;;3.25;1.17;;;18.40;55.60;;;;;;4496626;31;20136;-66
2022/01/10 04:24:56;;;;;;;2.30;1.10;;;18.40;55.60;;;;;;4495365;31;20877;-66
2022/01/10 04:27:22;;;;;;;4.25;1.00;;;18.40;55.70;;;;;;4496674;31;20127;-66
2022/01/10 04:29:48;;;;;;;2.45;0.85;;;18.40;56.60;;;;;;4496326;31;20531;-66
2022/01/10 04:32:14;;;;;;;2.70;1.10;;;18.40;55.70;;;;;;4496522;31;20620;-66
2022/01/10 04:34:40;;;;;;;2.60;0.80;;;18.40;55.70;;;;;;4496210;31;20128;-66
2022/01/10 04:37:07;;;;;;;2.33;1.20;;;18.40;55.70;;;;;;4496207;31;20255;-66
2022/01/10 04:39:33;;;;;;;2.25;1.20;;;18.40;56.60;;;;;;4496726;31;20137;-66
2022/01/10 04:41:59;;;;;;;3.20;1.23;;;18.30;55.60;;;;;;4496375;31;20238;-66
2022/01/10 04:44:25;;;;;;;2.08;1.00;;;18.30;55.60;;;;;;4496510;31;20121;-66
2022/01/10 04:46:51;;;;;;;3.45;1.00;;;18.30;55.60;;;;;;4495730;31;20117;-65
2022/01/10 04:49:21;;;;;;;3.42;1.00;;;18.30;55.60;;;;;;4496531;31;20216;-66
2022/01/10 04:51:49;;;;;;;2.00;0.90;;;18.30;55.60;;;;;;4496243;31;20136;-66
2022/01/10 04:54:16;;;;;;;1.95;0.80;;;18.30;55.60;;;;;;4496153;31;20172;-66
2022/01/10 04:56:43;;;;;;;2.38;0.85;;;18.30;55.60;;;;;;4496187;31;20594;-66
2022/01/10 04:59:09;;;;;;;1.70;0.80;;;18.30;55.70;;;;;;4496100;31;20136;-66
2022/01/10 05:01:35;;;;;;;1.77;0.80;;;18.30;55.60;;;;;;4495041;31;20497;-66
2022/01/10 05:04:02;;;;;;;2.83;0.70;;;18.30;55.60;;;;;;4495859;31;20482;-66
2022/01/10 05:06:27;;;;;;;3.75;1.15;;;18.20;55.60;;;;;;4496369;31;20279;-66
2022/01/10 05:08:53;;;;;;;2.88;0.98;;;18.20;55.60;;;;;;4495808;31;20120;-66
2022/01/10 05:11:20;;;;;;;2.60;1.05;;;18.20;55.70;;;;;;4495766;31;20140;-66
2022/01/10 05:13:46;;;;;;;3.10;1.55;;;18.20;55.70;;;;;;4496004;31;20159;-66
2022/01/10 05:16:14;;;;;;;2.63;0.93;;;18.20;55.70;;;;;;4481584;31;20141;-66
2022/01/10 05:18:39;;;;;;;2.00;0.75;;;18.20;55.70;;;;;;4495812;31;20129;-66
2022/01/10 05:21:06;;;;;;;1.70;0.88;;;18.20;55.70;;;;;;4494589;31;20113;-66
2022/01/10 05:23:31;;;;;;;2.17;0.90;;;18.20;56.60;;;;;;4496015;31;20202;-66
2022/01/10 05:25:57;;;;;;;3.13;0.75;;;18.10;55.60;;;;;;4495870;31;20124;-66
2022/01/10 05:28:23;;;;;;;2.38;1.00;;;18.10;55.60;;;;;;4485010;31;20477;-66
2022/01/10 05:30:51;;;;;;;2.35;0.90;;;18.20;55.70;;;;;;4499156;31;20501;-66
2022/01/10 05:33:18;;;;;;;2.38;0.70;;;18.10;55.70;;;;;;4497943;31;20594;-66
2022/01/10 05:35:44;;;;;;;1.63;0.70;;;18.10;55.70;;;;;;4499133;31;20770;-66
2022/01/10 05:38:11;;;;;;;2.88;0.90;;;18.10;55.70;;;;;;4498636;31;20828;-66
2022/01/10 05:40:38;;;;;;;1.33;0.70;;;18.10;55.70;;;;;;4499218;31;20129;-66
2022/01/10 05:43:04;;;;;;;2.88;1.00;;;18.10;55.70;;;;;;4498957;31;20222;-66
2022/01/10 05:45:30;;;;;;;2.58;0.88;;;18.10;55.70;;;;;;4498904;31;20777;-66
2022/01/10 05:48:06;;;;;;;1.77;0.93;;;18.10;55.80;;;;;;4498920;31;20274;-66
2022/01/10 05:50:35;;;;;;;1.38;0.75;;;18.10;55.80;;;;;;4498693;31;20184;-66
2022/01/10 05:53:02;;;;;;;2.22;0.80;;;18.10;55.80;;;;;;4499068;31;20144;-66
2022/01/10 05:55:28;;;;;;;2.50;0.93;;;18.00;55.70;;;;;;4484409;31;20132;-66
2022/01/10 05:57:54;;;;;;;1.48;0.77;;;18.00;55.70;;;;;;4497667;31;20117;-66
2022/01/10 06:00:20;;;;;;;2.53;1.00;;;18.00;55.70;;;;;;4498841;31;20166;-66
2022/01/10 06:02:46;;;;;;;2.67;1.10;;;18.00;55.70;;;;;;4498338;31;20628;-66
2022/01/10 06:05:12;;;;;;;1.42;0.85;;;18.00;55.70;;;;;;4499140;31;20732;-66
2022/01/10 06:07:38;;;;;;;2.65;1.00;;;18.00;55.70;;;;;;4484238;31;20144;-66
2022/01/10 06:10:05;;;;;;;2.05;0.85;;;18.00;55.70;;;;;;4498722;31;20149;-66
2022/01/10 06:12:32;;;;;;;2.08;0.95;;;18.00;55.80;;;;;;4498167;31;20211;-66
2022/01/10 06:14:58;;;;;;;2.53;0.70;;;18.00;55.80;;;;;;4498544;31;20132;-65
2022/01/10 06:17:24;;;;;;;2.13;1.08;;;17.90;55.70;;;;;;4498632;31;20140;-66
2022/01/10 06:19:50;;;;;;;3.25;0.95;;;17.90;55.70;;;;;;4497929;31;20113;-66
2022/01/10 06:22:15;;;;;;;1.40;0.85;;;17.90;55.80;;;;;;4497593;31;20139;-66
2022/01/10 06:24:41;;;;;;;2.60;0.90;;;17.90;55.80;;;;;;4497037;31;20140;-65
2022/01/10 06:27:07;;;;;;;1.77;1.00;;;17.90;55.80;;;;;;4497535;31;20283;-66
2022/01/10 06:29:33;;;;;;;1.70;0.80;;;17.90;55.80;;;;;;4497967;31;20121;-66
2022/01/10 06:31:59;;;;;;;2.33;0.90;;;17.90;55.80;;;;;;4498517;31;20184;-66
2022/01/10 06:34:25;;;;;;;1.55;0.70;;;17.90;55.80;;;;;;4497194;31;20581;-66
2022/01/10 06:36:51;;;;;;;2.35;0.80;;;17.90;55.80;;;;;;4497594;31;20147;-66
2022/01/10 06:39:17;;;;;;;2.38;1.00;;;17.90;56.70;;;;;;4498483;31;20139;-66
2022/01/10 06:41:42;;;;;;;1.65;0.75;;;17.90;55.80;;;;;;4483743;31;20120;-66
2022/01/10 06:44:08;;;;;;;2.67;0.93;;;17.90;55.80;;;;;;4497194;31;20117;-66
2022/01/10 06:46:34;;;;;;;1.60;0.77;;;17.80;55.70;;;;;;4497431;31;20589;-66
2022/01/10 06:49:00;;;;;;;1.48;0.68;;;17.80;55.80;;;;;;4497898;31;20251;-66
2022/01/10 06:51:26;;;;;;;2.35;0.88;;;17.80;55.80;;;;;;4497863;31;20187;-66
2022/01/10 06:53:53;;;;;;;2.20;1.17;;;17.80;55.80;;;;;;4497617;31;20194;-66
2022/01/10 06:56:19;;;;;;;1.90;0.85;;;17.80;55.90;;;;;;4498350;31;20529;-66
2022/01/10 06:58:45;;;;;;;2.30;0.82;;;17.80;55.80;;;;;;4497564;31;20310;-65
2022/01/10 07:01:11;;;;;;;2.60;0.85;;;17.80;55.90;;;;;;4497646;31;20132;-65
2022/01/10 07:03:37;;;;;;;3.63;2.00;;;17.70;55.80;;;;;;4497767;31;20117;-66
2022/01/10 07:06:02;;;;;;;2.90;1.45;;;17.70;55.00;;;;;;4483842;31;20158;-65
2022/01/10 07:08:28;;;;;;;2.85;1.17;;;17.70;54.90;;;;;;4495433;31;20139;-66
2022/01/10 07:10:54;;;;;;;2.75;1.63;;;17.70;55.10;;;;;;4495388;31;20183;-66
2022/01/10 07:13:21;;;;;;;4.75;1.67;;;17.60;55.00;;;;;;4496881;31;20140;-66
2022/01/10 07:15:47;;;;;;;6.30;1.35;;;17.60;54.90;;;;;;4482638;31;20160;-66
2022/01/10 07:18:13;;;;;;;3.03;1.20;;;17.70;55.00;;;;;;4496539;31;20755;-67
2022/01/10 07:20:39;;;;;;;3.42;1.30;;;17.70;55.00;;;;;;4481732;31;20258;-67
2022/01/10 07:23:06;;;;;;;3.65;1.27;;;17.70;55.10;;;;;;4496255;31;20415;-67
2022/01/10 07:25:32;;;;;;;3.22;1.30;;;17.70;55.00;;;;;;4496000;31;20202;-67
2022/01/10 07:27:58;;;;;;;2.85;1.50;;;17.70;54.90;;;;;;4496108;31;20297;-66
2022/01/10 07:30:25;;;;;;;2.60;1.15;;;17.70;54.90;;;;;;4482046;31;20135;-67
2022/01/10 07:32:52;;;;;;;2.63;1.30;;;17.80;54.90;;;;;;4495691;31;20133;-67
2022/01/10 07:35:18;;;;;;;2.88;1.35;;;17.80;54.80;;;;;;4496245;31;20132;-69
2022/01/10 07:37:43;;;;;;;4.15;1.23;;;17.90;54.80;;;;;;4493674;31;20466;-67
2022/01/10 07:40:10;;;;;;;3.60;1.40;;;17.90;54.70;;;;;;4496186;31;20636;-69
2022/01/10 07:42:36;;;;;;;3.28;1.20;;;18.00;54.50;;;;;;4495867;31;20816;-67
2022/01/10 07:45:04;;;;;;;3.70;1.38;;;18.10;54.20;;;;;;4495947;31;20163;-67
2022/01/10 07:47:32;;;;;;;4.07;1.58;;;18.20;54.00;;;;;;4494731;31;20286;-68
2022/01/10 07:49:58;;;;;;;6.40;1.55;;;18.30;53.70;;;;;;4493759;31;20128;-68
2022/01/10 07:52:25;;;;;;;7.35;1.58;;;18.40;53.50;;;;;;4480698;31;20135;-68
2022/01/10 07:54:52;;;;;;;3.50;1.20;;;18.50;53.30;;;;;;4495947;31;20125;-68
2022/01/10 07:57:18;;;;;;;3.00;1.40;;;18.70;53.20;;;;;;4495545;31;20489;-68
2022/01/10 07:59:45;;;;;;;5.80;1.10;;;18.80;52.90;;;;;;4494974;31;20278;-68
2022/01/10 08:02:11;;;;;;;7.13;1.50;;;18.90;52.60;;;;;;4479089;31;20145;-68
2022/01/10 08:04:37;;;;;;;10.40;1.80;;;19.00;52.30;;;;;;4495977;31;20139;-67
2022/01/10 08:07:04;;;;;;;4.68;1.40;;;19.10;52.80;;;;;;4495195;31;20128;-67
2022/01/10 08:09:30;;;;;;;3.05;1.23;;;19.20;51.50;;;;;;4496077;31;20245;-68
2022/01/10 08:11:59;;;;;;;2.50;1.30;;;19.30;51.10;;;;;;4493530;31;20611;-68
2022/01/10 08:14:27;;;;;;;4.03;1.70;;;19.50;50.80;;;;;;4496060;31;20144;-68
2022/01/10 08:16:53;;;;;;;3.05;1.42;;;19.60;50.50;;;;;;4495097;31;20133;-68
2022/01/10 08:19:19;;;;;;;3.10;0.98;;;19.70;50.20;;;;;;4480472;31;20140;-67
2022/01/10 08:21:44;;;;;;;2.50;1.30;;;19.80;50.00;;;;;;4480915;31;20175;-68
2022/01/10 08:24:10;;;;;;;2.75;1.40;;;19.90;49.70;;;;;;4486350;31;20117;-67
2022/01/10 08:26:36;;;;;;;2.10;0.93;;;20.00;49.40;;;;;;4479020;31;20182;-68
2022/01/10 08:29:03;;;;;;;5.03;1.20;;;20.10;49.20;;;;;;4492312;31;20201;-68
2022/01/10 08:31:29;;;;;;;3.55;0.80;;;20.30;49.10;;;;;;4480045;31;20152;-68
2022/01/10 08:33:55;;;;;;;3.90;1.05;;;20.40;48.90;;;;;;4489838;31;20143;-67
2022/01/10 08:36:21;;;;;;;2.30;0.95;;;20.50;48.60;;;;;;4496156;31;20133;-69
2022/01/10 08:38:46;;;;;;;1.90;1.05;;;20.60;48.50;;;;;;4495922;31;20120;-69
2022/01/10 08:41:12;;;;;;;3.63;1.08;;;20.60;48.30;;;;;;4494957;31;20177;-68
2022/01/10 08:43:39;;;;;;;2.28;1.05;;;20.80;48.20;;;;;;4496173;31;20117;-69
2022/01/10 08:46:04;;;;;;;2.22;1.02;;;20.90;48.00;;;;;;4495530;31;20282;-70
2022/01/10 08:48:31;;;;;;;2.17;0.98;;;21.00;47.80;;;;;;4478712;32;20313;-69
2022/01/10 08:50:57;;;;;;;3.45;1.00;;;21.10;47.60;;;;;;4491272;31;20127;-70
2022/01/10 08:53:23;;;;;;;1.90;1.00;;;21.20;47.50;;;;;;4495627;31;20790;-69
2022/01/10 08:55:51;;;;;;;3.22;1.25;;;21.30;47.50;;;;;;4495992;31;20141;-70
2022/01/10 08:58:16;;;;;;;8.07;1.85;;;21.30;47.40;;;;;;4491468;31;20132;-67
2022/01/10 09:00:42;;;;;;;3.10;1.20;;;21.20;47.50;;;;;;4478576;31;20270;-67
2022/01/10 09:03:08;;;;;;;5.25;1.30;;;21.20;47.70;;;;;;4489294;31;20120;-66
2022/01/10 09:05:34;;;;;;;2.58;1.20;;;21.10;47.90;;;;;;4494112;31;20137;-67
2022/01/10 09:08:02;;;;;;;4.40;1.27;;;21.00;48.20;;;;;;4494648;31;20134;-68
2022/01/10 09:10:28;;;;;;;4.90;0.90;;;21.00;48.40;;;;;;4494172;31;20205;-69
2022/01/10 09:12:54;;;;;;;3.17;1.10;;;20.90;48.60;;;;;;4495112;31;20151;-66
2022/01/10 09:15:21;;;;;;;5.60;2.80;;;20.80;49.70;;;;;;4491919;31;20594;-67
2022/01/10 09:17:47;;;;;;;5.75;2.47;;;20.80;48.10;;;;;;4478195;31;20592;-67
2022/01/10 09:20:12;;;;;;;4.60;2.45;;;20.70;47.40;;;;;;4484767;31;20120;-68
2022/01/10 09:22:39;;;;;;;3.08;1.83;;;20.60;47.20;;;;;;4481183;31;20146;-67
2022/01/10 09:25:05;;;;;;;7.50;1.90;;;20.60;47.30;;;;;;4492025;31;20159;-69
2022/01/10 09:27:31;;;;;;;3.60;1.55;;;20.50;47.40;;;;;;4494753;32;20136;-70
2022/01/10 09:29:57;;;;;;;4.32;1.45;;;20.50;47.60;;;;;;4494577;32;20125;-69
2022/01/10 09:32:23;;;;;;;5.20;1.52;;;20.50;47.70;;;;;;4494002;32;20197;-69
2022/01/10 09:34:49;;;;;;;7.03;1.73;;;20.50;47.80;;;;;;4492941;32;20175;-69
2022/01/10 09:37:15;;;;;;;4.18;1.50;;;20.60;47.90;;;;;;4493969;32;20135;-69
2022/01/10 09:39:41;;;;;;;7.32;2.42;;;20.60;48.10;;;;;;4480414;32;20286;-67
2022/01/10 09:42:13;;;;;;;4.18;1.30;;;20.60;48.10;;;;;;4479974;32;20183;-67
2022/01/10 09:44:40;;;;;;;5.13;1.50;;;20.60;48.20;;;;;;4491409;32;20145;-69
2022/01/10 09:47:06;;;;;;;3.75;1.13;;;20.60;48.30;;;;;;4479151;32;20124;-69
2022/01/10 09:49:32;;;;;;;9.98;1.23;;;20.60;48.40;;;;;;4492708;32;20133;-68
2022/01/10 09:51:58;;;;;;;4.68;1.20;;;20.60;48.50;;;;;;4493246;32;20501;-70
2022/01/10 09:54:24;;;;;;;2.20;1.30;;;20.60;48.60;;;;;;4488331;32;20209;-66
2022/01/10 09:56:51;;;;;;;4.78;1.50;;;20.60;48.70;;;;;;4487785;32;20617;-68
2022/01/10 09:59:17;;;;;;;2.80;1.00;;;20.60;48.80;;;;;;4493906;32;20247;-67
2022/01/10 10:01:45;;;;;;;2.95;1.30;;;20.60;48.90;;;;;;4494032;32;20525;-68
2022/01/10 10:04:12;;;;;;;4.93;1.42;;;20.60;48.90;;;;;;4493938;32;20164;-66
2022/01/10 10:06:38;;;;;;;3.33;1.35;;;20.60;49.00;;;;;;4494657;32;20133;-69
2022/01/10 10:09:06;;;;;;;4.32;1.50;;;20.60;49.10;;;;;;4494872;32;20132;-67
2022/01/10 10:11:38;;;;;;;1.95;0.98;;;20.60;49.10;;;;;;4491406;31;20557;-66
2022/01/10 10:14:05;;;;;;;3.00;1.23;;;20.60;49.20;;;;;;4496758;31;20160;-69
2022/01/10 10:16:35;;;;;;;4.78;1.38;;;20.60;49.20;;;;;;4493816;31;20121;-66
2022/01/10 10:19:01;;;;;;;3.20;1.20;;;20.60;49.30;;;;;;4493884;31;20238;-67
2022/01/10 10:21:27;;;;;;;3.25;1.23;;;20.60;49.30;;;;;;4493792;31;20133;-65
2022/01/10 10:23:52;;;;;;;4.10;1.20;;;20.60;49.40;;;;;;4495729;31;20152;-66
2022/01/10 10:26:21;;;;;;;5.10;1.67;;;20.60;49.40;;;;;;4481286;31;20180;-67
2022/01/10 10:28:49;;;;;;;2.65;1.42;;;20.60;49.40;;;;;;4487579;31;20198;-67
2022/01/10 10:31:46;;;;;;;2.85;1.38;;;20.60;49.50;;;;;;4496530;31;20633;-67
2022/01/10 10:34:19;;;;;;;3.10;1.00;;;20.60;49.60;;;;;;4496146;31;20156;-68
2022/01/10 10:36:46;;;;;;;;;;;20.60;49.60;;;;;;4497907;31;20273;-67
2022/01/10 10:39:13;;;;;;;3.20;1.08;;;20.50;49.60;;;;;;4498081;31;20021;-68
2022/01/10 10:41:41;;;;;;;4.28;1.10;;;20.60;49.60;;;;;;4482921;31;20144;-68
2022/01/10 10:44:07;;;;;;;3.17;1.08;;;20.60;49.60;;;;;;4497465;31;20191;-67
2022/01/10 10:46:35;;;;;;;3.30;1.25;;;20.50;49.50;;;;;;4482288;31;20287;-66
2022/01/10 10:49:04;;;;;;;4.93;1.20;;;20.60;49.50;;;;;;4496799;31;20154;-66
2022/01/10 10:51:34;;;;;;;4.53;1.33;;;20.60;49.70;;;;;;4496165;31;20170;-67
2022/01/10 10:54:07;;;;;;;1.85;1.00;;;20.50;49.70;;;;;;4496210;31;20121;-67
2022/01/10 10:56:39;;;;;;;4.38;1.33;;;20.50;49.90;;;;;;4496505;31;20310;-67
2022/01/10 10:59:07;;;;;;;2.97;1.02;;;20.40;50.10;;;;;;4497298;31;20124;-69
2022/01/10 11:01:37;;;;;;;5.22;1.38;;;20.40;50.20;;;;;;4496909;31;20131;-68
2022/01/10 11:04:05;;;;;;;4.82;1.40;;;20.30;50.40;;;;;;4493078;31;20187;-67
2022/01/10 11:06:32;;;;;;;2.47;1.30;;;20.30;50.50;;;;;;4494606;31;20238;-67
2022/01/10 11:09:01;;;;;;;6.40;1.52;;;20.30;50.60;;;;;;4496664;31;20159;-67
2022/01/10 11:11:28;;;;;;;4.20;1.27;;;20.30;50.60;;;;;;4495560;31;20290;-68
2022/01/10 11:13:56;;;;;;;1.80;1.20;;;20.30;50.60;;;;;;4482378;31;20129;-69
2022/01/10 11:16:23;;;;;;;5.90;1.38;;;20.30;50.50;;;;;;4495817;31;20133;-70
2022/01/10 11:18:49;;;;;;;5.50;1.17;;;20.30;50.60;;;;;;4496489;31;20286;-69
2022/01/10 11:21:16;;;;;;;3.58;1.15;;;20.30;50.60;;;;;;4495493;31;20140;-67
2022/01/10 11:23:45;;;;;;;3.10;1.50;;;20.40;50.60;;;;;;4490004;31;20260;-65
2022/01/10 11:26:12;;;;;;;4.90;1.30;;;20.40;50.50;;;;;;4496597;31;20146;-67
2022/01/10 11:28:47;;;;;;;2.28;1.02;;;20.40;50.50;;;;;;4483726;31;20151;-67
2022/01/10 11:31:27;;;;;;;5.60;1.17;;;20.50;50.60;;;;;;4482810;31;20146;-68
2022/01/10 11:33:55;;;;;;;3.30;1.15;;;20.50;50.60;;;;;;4491318;31;20144;-67
2022/01/10 11:36:24;;;;;;;3.75;1.33;;;20.50;51.40;;;;;;4490869;31;20593;-67
2022/01/10 11:38:52;;;;;;;3.05;1.50;;;20.50;50.50;;;;;;4494736;31;20174;-68
2022/01/10 11:41:25;;;;;;;3.30;1.40;;;20.50;50.40;;;;;;4493229;31;20171;-68
2022/01/10 11:43:56;;;;;;;2.80;1.63;;;20.50;50.40;;;;;;4495289;31;20147;-68
2022/01/10 11:46:25;;;;;;;4.72;1.30;;;20.60;50.40;;;;;;4496264;31;20128;-67
2022/01/10 11:48:52;;;;;;;8.85;1.15;;;20.50;50.50;;;;;;4495125;31;20625;-67
2022/01/10 11:51:43;;;;;;;2.33;1.20;;;20.60;50.50;;;;;;4493537;31;20152;-67
2022/01/10 11:54:11;;;;;;;2.03;1.20;;;20.60;50.50;;;;;;4493922;31;20194;-68
2022/01/10 11:56:40;;;;;;;3.13;1.33;;;20.60;50.50;;;;;;4493253;31;20109;-68
2022/01/10 11:59:17;;;;;;;6.43;1.33;;;20.60;50.50;;;;;;4494824;31;20696;-67
2022/01/10 12:01:51;;;;;;;2.65;1.10;;;20.60;50.50;;;;;;4489578;31;20274;-67
2022/01/10 12:04:22;;;;;;;5.25;1.38;;;20.60;50.60;;;;;;4488309;31;20140;-68
2022/01/10 12:06:48;;;;;;;3.85;1.35;;;20.60;50.60;;;;;;4489424;31;20721;-66
2022/01/10 12:09:15;;;;;;;4.15;1.30;;;20.60;50.70;;;;;;4492073;31;20573;-67
2022/01/10 12:11:44;;;;;;;2.60;1.20;;;20.60;50.80;;;;;;4483508;31;20611;-66
2022/01/10 12:14:10;;;;;;;2.85;1.00;;;20.60;50.80;;;;;;4490959;31;20153;-65
2022/01/10 12:16:37;;;;;;;4.57;1.17;;;20.50;50.90;;;;;;4478527;31;20121;-66
2022/01/10 12:19:05;;;;;;;5.03;1.17;;;20.60;51.00;;;;;;4492737;31;20132;-67
2022/01/10 12:21:31;;;;;;;2.22;1.13;;;20.50;51.10;;;;;;4490683;31;20117;-67
2022/01/10 12:23:58;;;;;;;3.67;1.30;;;20.60;51.20;;;;;;4489419;31;20183;-67
2022/01/10 12:26:25;;;;;;;2.53;1.00;;;20.50;51.20;;;;;;4467579;31;20153;-67
2022/01/10 12:28:53;;;;;;;3.95;1.40;;;20.50;51.30;;;;;;4492402;31;20133;-67
2022/01/10 12:31:21;;;;;;;2.65;1.30;;;20.50;51.40;;;;;;4485368;31;20238;-67
2022/01/10 12:33:49;;;;;;;2.35;1.05;;;20.50;51.40;;;;;;4490965;31;20156;-67
2022/01/10 12:36:17;;;;;;;2.10;1.30;;;20.50;51.40;;;;;;4482975;31;20136;-67
2022/01/10 12:38:43;;;;;;;3.40;1.20;;;20.50;51.50;;;;;;4492957;31;20143;-67
2022/01/10 12:41:09;;;;;;;3.45;1.17;;;20.50;51.50;;;;;;4492194;31;20278;-67
2022/01/10 12:43:36;;;;;;;1.95;1.10;;;20.50;52.50;;;;;;4492469;31;20267;-67
2022/01/10 12:46:02;;;;;;;2.17;1.10;;;20.50;51.60;;;;;;4482509;31;20274;-66
2022/01/10 12:48:28;;;;;;;2.78;0.93;;;20.50;51.60;;;;;;4483870;31;20145;-67
2022/01/10 12:50:56;;;;;;;2.40;1.10;;;20.50;51.70;;;;;;4491823;31;20117;-66
2022/01/10 12:53:22;;;;;;;2.45;1.20;;;20.50;51.80;;;;;;4490284;31;20487;-65
2022/01/10 12:55:48;;;;;;;2.55;1.02;;;20.50;51.90;;;;;;4487517;31;20202;-66